sensor_id;sensor_type;location;lat;lon;timestamp;noise_LAeq;noise_LA_min;noise_LA_max;noise_LA01;noise_LA95
69608;Laerm;57251;52.248;4.812;2023-11-22T00:00:00;35.82;33.82;39.14;;
69608;Laerm;57251;52.248;4.812;2023-11-22T00:00:10;37.20;33.71;40.16;;
69608;Laerm;57251;52.248;4.812;2023-11-22T00:00:22;37.66;34.61;41.37;;
69608;Laerm;57251;52.248;4.812;2023-11-22T00:00:33;35.16;32.79;38.23;;
69608;Laerm;57251;52.248;4.812;2023-11-22T00:00:43;35.48;33.19;38.00;;
69608;Laerm;57251;52.248;4.812;2023-11-22T00:00:53;34.98;33.14;38.36;;
69608;Laerm;57251;52.248;4.812;2023-11-22T00:01:04;35.29;33.50;37.94;;
69608;Laerm;57251;52.248;4.812;2023-11-22T00:01:14;35.40;33.59;37.58;;
69608;Laerm;57251;52.248;4.812;2023-11-22T00:01:24;34.71;33.31;36.21;;
69608;Laerm;57251;52.248;4.812;2023-11-22T00:01:36;35.26;33.72;37.17;;
69608;Laerm;57251;52.248;4.812;2023-11-22T00:01:49;36.55;34.61;39.29;;
69608;Laerm;57251;52.248;4.812;2023-11-22T00:01:59;35.74;34.17;38.24;;
69608;Laerm;57251;52.248;4.812;2023-11-22T00:02:09;36.28;34.04;46.81;;
69608;Laerm;57251;52.248;4.812;2023-11-22T00:02:19;34.78;33.24;37.99;;
69608;Laerm;57251;52.248;4.812;2023-11-22T00:02:30;37.31;33.34;51.35;;
69608;Laerm;57251;52.248;4.812;2023-11-22T00:02:40;35.35;33.89;38.14;;
69608;Laerm;57251;52.248;4.812;2023-11-22T00:02:50;34.89;32.77;39.68;;
69608;Laerm;57251;52.248;4.812;2023-11-22T00:03:00;34.61;32.59;43.77;;
69608;Laerm;57251;52.248;4.812;2023-11-22T00:03:11;35.29;32.91;40.45;;
69608;Laerm;57251;52.248;4.812;2023-11-22T00:03:21;35.82;33.58;39.11;;
69608;Laerm;57251;52.248;4.812;2023-11-22T00:03:33;34.78;33.36;36.62;;
69608;Laerm;57251;52.248;4.812;2023-11-22T00:03:43;35.70;33.76;37.88;;
69608;Laerm;57251;52.248;4.812;2023-11-22T00:03:54;34.93;33.31;36.47;;
69608;Laerm;57251;52.248;4.812;2023-11-22T00:04:04;35.82;33.91;39.27;;
69608;Laerm;57251;52.248;4.812;2023-11-22T00:04:14;36.30;34.15;38.82;;
69608;Laerm;57251;52.248;4.812;2023-11-22T00:04:24;36.97;34.32;42.04;;
69608;Laerm;57251;52.248;4.812;2023-11-22T00:04:35;35.66;33.06;38.18;;
69608;Laerm;57251;52.248;4.812;2023-11-22T00:04:45;35.51;33.33;38.89;;
69608;Laerm;57251;52.248;4.812;2023-11-22T00:04:55;35.95;34.16;38.06;;
69608;Laerm;57251;52.248;4.812;2023-11-22T00:05:06;35.39;33.35;38.27;;
69608;Laerm;57251;52.248;4.812;2023-11-22T00:05:16;35.91;34.05;39.24;;
69608;Laerm;57251;52.248;4.812;2023-11-22T00:05:26;35.54;34.14;38.78;;
69608;Laerm;57251;52.248;4.812;2023-11-22T00:05:36;34.58;33.24;36.30;;
69608;Laerm;57251;52.248;4.812;2023-11-22T00:05:47;35.03;33.77;36.22;;
69608;Laerm;57251;52.248;4.812;2023-11-22T00:05:57;35.43;33.90;38.16;;
69608;Laerm;57251;52.248;4.812;2023-11-22T00:06:08;34.63;33.27;36.32;;
69608;Laerm;57251;52.248;4.812;2023-11-22T00:06:18;34.68;32.99;36.63;;
69608;Laerm;57251;52.248;4.812;2023-11-22T00:06:31;34.80;32.89;38.33;;
69608;Laerm;57251;52.248;4.812;2023-11-22T00:06:42;34.76;32.81;36.82;;
69608;Laerm;57251;52.248;4.812;2023-11-22T00:06:52;34.67;32.93;38.04;;
69608;Laerm;57251;52.248;4.812;2023-11-22T00:07:02;34.30;33.05;36.66;;
69608;Laerm;57251;52.248;4.812;2023-11-22T00:07:12;34.63;33.13;35.94;;
69608;Laerm;57251;52.248;4.812;2023-11-22T00:07:22;35.39;33.54;38.55;;
69608;Laerm;57251;52.248;4.812;2023-11-22T00:07:33;36.62;34.44;40.13;;
69608;Laerm;57251;52.248;4.812;2023-11-22T00:07:43;35.69;33.44;38.85;;
69608;Laerm;57251;52.248;4.812;2023-11-22T00:07:53;39.00;35.73;43.06;;
69608;Laerm;57251;52.248;4.812;2023-11-22T00:08:03;36.53;33.77;40.57;;
69608;Laerm;57251;52.248;4.812;2023-11-22T00:08:13;36.46;34.05;41.03;;
69608;Laerm;57251;52.248;4.812;2023-11-22T00:08:24;36.25;34.31;40.26;;
69608;Laerm;57251;52.248;4.812;2023-11-22T00:08:34;35.80;34.37;37.86;;
69608;Laerm;57251;52.248;4.812;2023-11-22T00:08:44;35.79;33.03;39.14;;
69608;Laerm;57251;52.248;4.812;2023-11-22T00:08:54;35.88;33.64;39.17;;
69608;Laerm;57251;52.248;4.812;2023-11-22T00:09:05;35.47;33.54;39.69;;
69608;Laerm;57251;52.248;4.812;2023-11-22T00:09:15;35.27;33.74;37.41;;
69608;Laerm;57251;52.248;4.812;2023-11-22T00:09:25;35.76;34.04;38.25;;
69608;Laerm;57251;52.248;4.812;2023-11-22T00:09:35;36.77;35.11;39.21;;
69608;Laerm;57251;52.248;4.812;2023-11-22T00:09:45;36.25;34.39;39.24;;
69608;Laerm;57251;52.248;4.812;2023-11-22T00:09:57;35.92;33.69;39.17;;
69608;Laerm;57251;52.248;4.812;2023-11-22T00:10:08;35.98;33.44;39.93;;
69608;Laerm;57251;52.248;4.812;2023-11-22T00:10:21;35.33;33.74;37.35;;
69608;Laerm;57251;52.248;4.812;2023-11-22T00:10:31;34.63;33.33;35.84;;
69608;Laerm;57251;52.248;4.812;2023-11-22T00:10:41;34.31;32.67;41.43;;
69608;Laerm;57251;52.248;4.812;2023-11-22T00:10:51;34.29;32.60;35.53;;
69608;Laerm;57251;52.248;4.812;2023-11-22T00:11:02;35.04;33.48;37.00;;
69608;Laerm;57251;52.248;4.812;2023-11-22T00:11:13;34.95;33.26;37.00;;
69608;Laerm;57251;52.248;4.812;2023-11-22T00:11:24;35.87;34.46;38.61;;
69608;Laerm;57251;52.248;4.812;2023-11-22T00:11:34;35.58;33.96;38.77;;
69608;Laerm;57251;52.248;4.812;2023-11-22T00:11:44;36.32;34.21;39.60;;
69608;Laerm;57251;52.248;4.812;2023-11-22T00:11:55;38.11;35.12;40.60;;
69608;Laerm;57251;52.248;4.812;2023-11-22T00:12:05;35.83;33.39;38.68;;
69608;Laerm;57251;52.248;4.812;2023-11-22T00:12:16;36.31;33.98;38.48;;
69608;Laerm;57251;52.248;4.812;2023-11-22T00:12:27;35.77;34.00;38.48;;
69608;Laerm;57251;52.248;4.812;2023-11-22T00:12:38;35.93;33.41;39.74;;
69608;Laerm;57251;52.248;4.812;2023-11-22T00:12:48;35.44;33.78;37.42;;
69608;Laerm;57251;52.248;4.812;2023-11-22T00:12:58;34.67;33.20;35.81;;
69608;Laerm;57251;52.248;4.812;2023-11-22T00:13:08;34.84;33.14;36.75;;
69608;Laerm;57251;52.248;4.812;2023-11-22T00:13:19;35.07;33.55;37.15;;
69608;Laerm;57251;52.248;4.812;2023-11-22T00:13:29;34.65;33.23;35.91;;
69608;Laerm;57251;52.248;4.812;2023-11-22T00:13:39;35.30;32.99;36.82;;
69608;Laerm;57251;52.248;4.812;2023-11-22T00:13:50;34.67;33.00;36.79;;
69608;Laerm;57251;52.248;4.812;2023-11-22T00:14:05;35.19;33.10;36.95;;
69608;Laerm;57251;52.248;4.812;2023-11-22T00:14:16;37.87;34.50;40.11;;
69608;Laerm;57251;52.248;4.812;2023-11-22T00:14:26;34.70;33.02;36.20;;
69608;Laerm;57251;52.248;4.812;2023-11-22T00:14:37;34.55;32.63;37.18;;
69608;Laerm;57251;52.248;4.812;2023-11-22T00:14:47;34.49;32.66;36.64;;
69608;Laerm;57251;52.248;4.812;2023-11-22T00:14:57;34.89;33.16;36.53;;
69608;Laerm;57251;52.248;4.812;2023-11-22T00:15:07;34.78;33.24;37.64;;
69608;Laerm;57251;52.248;4.812;2023-11-22T00:15:17;35.12;33.58;37.51;;
69608;Laerm;57251;52.248;4.812;2023-11-22T00:15:28;34.85;33.18;36.16;;
69608;Laerm;57251;52.248;4.812;2023-11-22T00:15:38;34.03;32.84;35.37;;
69608;Laerm;57251;52.248;4.812;2023-11-22T00:15:48;33.86;32.56;35.13;;
69608;Laerm;57251;52.248;4.812;2023-11-22T00:16:00;34.05;32.72;35.19;;
69608;Laerm;57251;52.248;4.812;2023-11-22T00:16:10;34.43;33.30;39.75;;
69608;Laerm;57251;52.248;4.812;2023-11-22T00:16:21;34.24;32.67;36.88;;
69608;Laerm;57251;52.248;4.812;2023-11-22T00:16:31;34.13;32.76;35.35;;
69608;Laerm;57251;52.248;4.812;2023-11-22T00:16:42;34.58;33.22;36.77;;
69608;Laerm;57251;52.248;4.812;2023-11-22T00:16:52;34.33;33.00;36.78;;
69608;Laerm;57251;52.248;4.812;2023-11-22T00:17:03;36.96;33.02;42.27;;
69608;Laerm;57251;52.248;4.812;2023-11-22T00:17:14;36.78;33.55;42.27;;
69608;Laerm;57251;52.248;4.812;2023-11-22T00:17:24;34.96;33.00;40.57;;
69608;Laerm;57251;52.248;4.812;2023-11-22T00:17:35;34.99;32.84;39.19;;
69608;Laerm;57251;52.248;4.812;2023-11-22T00:17:45;34.69;33.09;37.34;;
69608;Laerm;57251;52.248;4.812;2023-11-22T00:17:55;34.51;32.72;35.87;;
69608;Laerm;57251;52.248;4.812;2023-11-22T00:18:07;35.52;33.38;38.53;;
69608;Laerm;57251;52.248;4.812;2023-11-22T00:18:17;35.83;33.47;42.12;;
69608;Laerm;57251;52.248;4.812;2023-11-22T00:18:28;34.76;33.09;36.84;;
69608;Laerm;57251;52.248;4.812;2023-11-22T00:18:39;34.56;33.03;36.54;;
69608;Laerm;57251;52.248;4.812;2023-11-22T00:18:50;34.98;33.35;37.27;;
69608;Laerm;57251;52.248;4.812;2023-11-22T00:19:01;35.28;32.98;37.69;;
69608;Laerm;57251;52.248;4.812;2023-11-22T00:19:11;36.14;33.24;38.90;;
69608;Laerm;57251;52.248;4.812;2023-11-22T00:19:21;35.32;33.70;36.80;;
69608;Laerm;57251;52.248;4.812;2023-11-22T00:19:33;35.27;33.52;37.03;;
69608;Laerm;57251;52.248;4.812;2023-11-22T00:19:44;35.44;33.40;39.00;;
69608;Laerm;57251;52.248;4.812;2023-11-22T00:19:57;34.63;32.68;37.46;;
69608;Laerm;57251;52.248;4.812;2023-11-22T00:20:07;35.58;33.59;38.55;;
69608;Laerm;57251;52.248;4.812;2023-11-22T00:20:18;35.44;33.20;38.32;;
69608;Laerm;57251;52.248;4.812;2023-11-22T00:20:28;34.70;33.42;36.34;;
69608;Laerm;57251;52.248;4.812;2023-11-22T00:20:39;35.80;33.92;38.00;;
69608;Laerm;57251;52.248;4.812;2023-11-22T00:20:49;34.63;33.13;36.14;;
69608;Laerm;57251;52.248;4.812;2023-11-22T00:21:00;35.46;33.59;38.85;;
69608;Laerm;57251;52.248;4.812;2023-11-22T00:21:10;35.11;33.60;36.65;;
69608;Laerm;57251;52.248;4.812;2023-11-22T00:21:21;35.77;33.70;40.60;;
69608;Laerm;57251;52.248;4.812;2023-11-22T00:21:32;35.66;33.57;38.62;;
69608;Laerm;57251;52.248;4.812;2023-11-22T00:21:42;35.83;32.94;40.54;;
69608;Laerm;57251;52.248;4.812;2023-11-22T00:21:52;35.41;33.61;37.48;;
69608;Laerm;57251;52.248;4.812;2023-11-22T00:22:02;35.12;33.15;39.05;;
69608;Laerm;57251;52.248;4.812;2023-11-22T00:22:21;36.41;34.01;40.78;;
69608;Laerm;57251;52.248;4.812;2023-11-22T00:22:32;35.75;33.61;38.31;;
69608;Laerm;57251;52.248;4.812;2023-11-22T00:22:42;36.11;34.50;37.88;;
69608;Laerm;57251;52.248;4.812;2023-11-22T00:22:55;36.65;34.14;39.64;;
69608;Laerm;57251;52.248;4.812;2023-11-22T00:23:05;36.32;33.36;39.47;;
69608;Laerm;57251;52.248;4.812;2023-11-22T00:23:15;35.08;33.76;36.41;;
69608;Laerm;57251;52.248;4.812;2023-11-22T00:23:25;35.92;34.00;38.02;;
69608;Laerm;57251;52.248;4.812;2023-11-22T00:23:39;37.80;34.76;41.58;;
69608;Laerm;57251;52.248;4.812;2023-11-22T00:23:49;36.97;35.16;38.73;;
69608;Laerm;57251;52.248;4.812;2023-11-22T00:23:59;37.28;35.23;40.60;;
69608;Laerm;57251;52.248;4.812;2023-11-22T00:24:09;38.78;35.95;40.60;;
69608;Laerm;57251;52.248;4.812;2023-11-22T00:24:19;38.26;34.76;42.82;;
69608;Laerm;57251;52.248;4.812;2023-11-22T00:24:30;35.80;33.82;38.15;;
69608;Laerm;57251;52.248;4.812;2023-11-22T00:24:41;38.39;34.63;43.82;;
69608;Laerm;57251;52.248;4.812;2023-11-22T00:24:51;37.57;34.94;43.33;;
69608;Laerm;57251;52.248;4.812;2023-11-22T00:25:01;36.13;34.08;38.95;;
69608;Laerm;57251;52.248;4.812;2023-11-22T00:25:12;35.62;33.42;37.91;;
69608;Laerm;57251;52.248;4.812;2023-11-22T00:25:23;34.65;32.77;36.40;;
69608;Laerm;57251;52.248;4.812;2023-11-22T00:25:33;33.82;32.64;34.90;;
69608;Laerm;57251;52.248;4.812;2023-11-22T00:25:43;34.08;33.03;36.01;;
69608;Laerm;57251;52.248;4.812;2023-11-22T00:25:54;34.78;33.10;38.49;;
69608;Laerm;57251;52.248;4.812;2023-11-22T00:26:04;34.19;32.65;35.58;;
69608;Laerm;57251;52.248;4.812;2023-11-22T00:26:16;34.20;32.74;36.19;;
69608;Laerm;57251;52.248;4.812;2023-11-22T00:26:26;34.60;32.56;38.36;;
69608;Laerm;57251;52.248;4.812;2023-11-22T00:26:36;34.58;32.78;36.59;;
69608;Laerm;57251;52.248;4.812;2023-11-22T00:26:46;34.40;32.33;38.14;;
69608;Laerm;57251;52.248;4.812;2023-11-22T00:26:56;34.54;33.11;35.81;;
69608;Laerm;57251;52.248;4.812;2023-11-22T00:27:07;35.93;33.80;40.97;;
69608;Laerm;57251;52.248;4.812;2023-11-22T00:27:17;35.88;33.38;38.56;;
69608;Laerm;57251;52.248;4.812;2023-11-22T00:27:28;34.35;32.65;36.23;;
69608;Laerm;57251;52.248;4.812;2023-11-22T00:27:39;38.80;33.12;44.82;;
69608;Laerm;57251;52.248;4.812;2023-11-22T00:27:50;37.93;35.03;43.74;;
69608;Laerm;57251;52.248;4.812;2023-11-22T00:28:00;45.14;36.54;49.29;;
69608;Laerm;57251;52.248;4.812;2023-11-22T00:28:10;41.49;34.71;48.82;;
69608;Laerm;57251;52.248;4.812;2023-11-22T00:28:21;37.54;34.42;40.76;;
69608;Laerm;57251;52.248;4.812;2023-11-22T00:28:32;40.13;33.94;47.51;;
69608;Laerm;57251;52.248;4.812;2023-11-22T00:28:42;47.01;33.57;57.26;;
69608;Laerm;57251;52.248;4.812;2023-11-22T00:28:53;45.46;34.53;53.52;;
69608;Laerm;57251;52.248;4.812;2023-11-22T00:29:03;42.03;35.59;48.64;;
69608;Laerm;57251;52.248;4.812;2023-11-22T00:29:15;37.75;34.64;44.34;;
69608;Laerm;57251;52.248;4.812;2023-11-22T00:29:25;42.11;37.54;45.69;;
69608;Laerm;57251;52.248;4.812;2023-11-22T00:29:35;39.02;32.97;45.31;;
69608;Laerm;57251;52.248;4.812;2023-11-22T00:29:45;35.84;33.78;38.57;;
69608;Laerm;57251;52.248;4.812;2023-11-22T00:29:59;36.38;34.28;39.49;;
69608;Laerm;57251;52.248;4.812;2023-11-22T00:30:09;34.68;33.12;36.29;;
69608;Laerm;57251;52.248;4.812;2023-11-22T00:30:19;34.42;32.89;36.30;;
69608;Laerm;57251;52.248;4.812;2023-11-22T00:30:30;35.24;33.92;36.42;;
69608;Laerm;57251;52.248;4.812;2023-11-22T00:30:40;35.71;33.67;39.50;;
69608;Laerm;57251;52.248;4.812;2023-11-22T00:30:50;34.67;33.14;35.97;;
69608;Laerm;57251;52.248;4.812;2023-11-22T00:31:01;35.27;33.61;36.63;;
69608;Laerm;57251;52.248;4.812;2023-11-22T00:31:11;34.72;33.09;35.78;;
69608;Laerm;57251;52.248;4.812;2023-11-22T00:31:24;35.24;33.52;37.44;;
69608;Laerm;57251;52.248;4.812;2023-11-22T00:31:34;35.16;33.11;37.05;;
69608;Laerm;57251;52.248;4.812;2023-11-22T00:31:45;35.22;33.45;37.64;;
69608;Laerm;57251;52.248;4.812;2023-11-22T00:31:55;34.96;33.19;37.83;;
69608;Laerm;57251;52.248;4.812;2023-11-22T00:32:06;34.46;32.73;35.84;;
69608;Laerm;57251;52.248;4.812;2023-11-22T00:32:17;35.36;33.42;40.89;;
69608;Laerm;57251;52.248;4.812;2023-11-22T00:32:27;36.96;34.01;41.09;;
69608;Laerm;57251;52.248;4.812;2023-11-22T00:32:38;35.18;32.99;37.57;;
69608;Laerm;57251;52.248;4.812;2023-11-22T00:32:48;34.04;32.94;35.54;;
69608;Laerm;57251;52.248;4.812;2023-11-22T00:32:59;34.09;32.55;35.95;;
69608;Laerm;57251;52.248;4.812;2023-11-22T00:33:09;34.67;33.05;36.54;;
69608;Laerm;57251;52.248;4.812;2023-11-22T00:33:19;34.62;33.06;36.05;;
69608;Laerm;57251;52.248;4.812;2023-11-22T00:33:30;35.11;33.92;36.40;;
69608;Laerm;57251;52.248;4.812;2023-11-22T00:33:41;35.74;34.02;40.57;;
69608;Laerm;57251;52.248;4.812;2023-11-22T00:33:51;35.51;33.59;38.45;;
69608;Laerm;57251;52.248;4.812;2023-11-22T00:34:02;34.93;32.58;41.70;;
69608;Laerm;57251;52.248;4.812;2023-11-22T00:34:12;34.20;32.94;35.58;;
69608;Laerm;57251;52.248;4.812;2023-11-22T00:34:22;34.76;32.95;40.29;;
69608;Laerm;57251;52.248;4.812;2023-11-22T00:34:33;35.86;33.11;42.44;;
69608;Laerm;57251;52.248;4.812;2023-11-22T00:34:43;35.43;33.00;41.81;;
69608;Laerm;57251;52.248;4.812;2023-11-22T00:34:53;34.85;32.83;37.73;;
69608;Laerm;57251;52.248;4.812;2023-11-22T00:35:03;35.07;32.94;36.86;;
69608;Laerm;57251;52.248;4.812;2023-11-22T00:35:14;34.72;33.14;37.20;;
69608;Laerm;57251;52.248;4.812;2023-11-22T00:35:24;34.78;33.39;36.41;;
69608;Laerm;57251;52.248;4.812;2023-11-22T00:35:34;35.19;33.62;36.84;;
69608;Laerm;57251;52.248;4.812;2023-11-22T00:35:44;34.91;33.17;36.81;;
69608;Laerm;57251;52.248;4.812;2023-11-22T00:35:54;34.98;33.48;36.42;;
69608;Laerm;57251;52.248;4.812;2023-11-22T00:36:07;36.24;33.56;40.92;;
69608;Laerm;57251;52.248;4.812;2023-11-22T00:36:18;35.79;34.05;37.97;;
69608;Laerm;57251;52.248;4.812;2023-11-22T00:36:28;34.18;32.52;36.27;;
69608;Laerm;57251;52.248;4.812;2023-11-22T00:36:39;34.94;33.27;36.42;;
69608;Laerm;57251;52.248;4.812;2023-11-22T00:36:49;35.58;33.52;38.73;;
69608;Laerm;57251;52.248;4.812;2023-11-22T00:37:00;35.16;33.10;37.93;;
69608;Laerm;57251;52.248;4.812;2023-11-22T00:37:11;35.50;33.02;37.71;;
69608;Laerm;57251;52.248;4.812;2023-11-22T00:37:21;35.38;33.84;37.65;;
69608;Laerm;57251;52.248;4.812;2023-11-22T00:37:31;35.79;34.00;39.71;;
69608;Laerm;57251;52.248;4.812;2023-11-22T00:37:42;34.92;33.03;37.82;;
69608;Laerm;57251;52.248;4.812;2023-11-22T00:37:52;34.53;33.15;36.48;;
69608;Laerm;57251;52.248;4.812;2023-11-22T00:38:02;35.42;33.63;38.23;;
69608;Laerm;57251;52.248;4.812;2023-11-22T00:38:12;36.78;34.48;39.70;;
69608;Laerm;57251;52.248;4.812;2023-11-22T00:38:22;34.90;33.23;37.13;;
69608;Laerm;57251;52.248;4.812;2023-11-22T00:38:33;35.40;33.50;37.98;;
69608;Laerm;57251;52.248;4.812;2023-11-22T00:38:46;35.71;32.93;40.13;;
69608;Laerm;57251;52.248;4.812;2023-11-22T00:38:56;34.10;32.60;35.39;;
69608;Laerm;57251;52.248;4.812;2023-11-22T00:39:06;33.88;32.74;35.40;;
69608;Laerm;57251;52.248;4.812;2023-11-22T00:39:17;34.32;32.73;35.85;;
69608;Laerm;57251;52.248;4.812;2023-11-22T00:39:27;34.11;32.56;35.37;;
69608;Laerm;57251;52.248;4.812;2023-11-22T00:39:37;34.28;33.15;35.74;;
69608;Laerm;57251;52.248;4.812;2023-11-22T00:39:48;34.07;32.55;35.50;;
69608;Laerm;57251;52.248;4.812;2023-11-22T00:39:58;33.92;32.25;35.49;;
69608;Laerm;57251;52.248;4.812;2023-11-22T00:40:10;34.37;32.56;37.62;;
69608;Laerm;57251;52.248;4.812;2023-11-22T00:40:20;34.26;32.68;36.99;;
69608;Laerm;57251;52.248;4.812;2023-11-22T00:40:31;34.10;32.95;35.65;;
69608;Laerm;57251;52.248;4.812;2023-11-22T00:40:41;34.17;32.75;36.57;;
69608;Laerm;57251;52.248;4.812;2023-11-22T00:40:52;34.01;32.79;36.39;;
69608;Laerm;57251;52.248;4.812;2023-11-22T00:41:02;34.02;32.25;36.74;;
69608;Laerm;57251;52.248;4.812;2023-11-22T00:41:12;34.76;33.04;37.52;;
69608;Laerm;57251;52.248;4.812;2023-11-22T00:41:29;34.59;33.12;36.66;;
69608;Laerm;57251;52.248;4.812;2023-11-22T00:41:39;35.92;33.13;40.86;;
69608;Laerm;57251;52.248;4.812;2023-11-22T00:41:50;36.32;33.92;38.85;;
69608;Laerm;57251;52.248;4.812;2023-11-22T00:42:00;36.53;33.92;39.73;;
69608;Laerm;57251;52.248;4.812;2023-11-22T00:42:10;35.41;33.71;37.50;;
69608;Laerm;57251;52.248;4.812;2023-11-22T00:42:21;35.47;33.89;37.25;;
69608;Laerm;57251;52.248;4.812;2023-11-22T00:42:32;35.67;33.19;38.80;;
69608;Laerm;57251;52.248;4.812;2023-11-22T00:42:42;37.39;33.73;40.60;;
69608;Laerm;57251;52.248;4.812;2023-11-22T00:42:53;36.81;34.83;39.37;;
69608;Laerm;57251;52.248;4.812;2023-11-22T00:43:03;36.84;34.32;40.45;;
69608;Laerm;57251;52.248;4.812;2023-11-22T00:43:13;35.89;34.33;38.77;;
69608;Laerm;57251;52.248;4.812;2023-11-22T00:43:24;37.19;34.80;39.72;;
69608;Laerm;57251;52.248;4.812;2023-11-22T00:43:35;37.26;34.69;41.60;;
69608;Laerm;57251;52.248;4.812;2023-11-22T00:43:45;36.16;34.50;38.13;;
69608;Laerm;57251;52.248;4.812;2023-11-22T00:43:56;35.98;34.18;38.28;;
69608;Laerm;57251;52.248;4.812;2023-11-22T00:44:06;35.72;33.09;39.08;;
69608;Laerm;57251;52.248;4.812;2023-11-22T00:44:16;38.67;35.89;41.49;;
69608;Laerm;57251;52.248;4.812;2023-11-22T00:44:26;37.12;34.53;40.22;;
69608;Laerm;57251;52.248;4.812;2023-11-22T00:44:37;37.09;35.00;39.45;;
69608;Laerm;57251;52.248;4.812;2023-11-22T00:44:47;36.51;33.90;39.93;;
69608;Laerm;57251;52.248;4.812;2023-11-22T00:44:58;36.67;34.44;39.98;;
69608;Laerm;57251;52.248;4.812;2023-11-22T00:45:08;36.46;34.26;39.40;;
69608;Laerm;57251;52.248;4.812;2023-11-22T00:45:19;36.75;33.97;41.02;;
69608;Laerm;57251;52.248;4.812;2023-11-22T00:45:30;38.94;36.69;42.13;;
69608;Laerm;57251;52.248;4.812;2023-11-22T00:45:40;37.17;34.09;40.39;;
69608;Laerm;57251;52.248;4.812;2023-11-22T00:45:50;35.40;33.82;37.73;;
69608;Laerm;57251;52.248;4.812;2023-11-22T00:46:00;35.48;33.30;37.78;;
69608;Laerm;57251;52.248;4.812;2023-11-22T00:46:11;34.10;32.96;35.27;;
69608;Laerm;57251;52.248;4.812;2023-11-22T00:46:21;34.34;33.12;35.71;;
69608;Laerm;57251;52.248;4.812;2023-11-22T00:46:32;34.38;33.13;36.30;;
69608;Laerm;57251;52.248;4.812;2023-11-22T00:46:42;34.65;33.10;37.47;;
69608;Laerm;57251;52.248;4.812;2023-11-22T00:46:52;37.45;34.26;43.17;;
69608;Laerm;57251;52.248;4.812;2023-11-22T00:47:03;36.17;33.79;38.21;;
69608;Laerm;57251;52.248;4.812;2023-11-22T00:47:13;37.01;34.09;40.72;;
69608;Laerm;57251;52.248;4.812;2023-11-22T00:47:23;36.81;34.48;40.67;;
69608;Laerm;57251;52.248;4.812;2023-11-22T00:47:33;39.05;34.99;42.92;;
69608;Laerm;57251;52.248;4.812;2023-11-22T00:47:44;35.92;33.66;38.62;;
69608;Laerm;57251;52.248;4.812;2023-11-22T00:47:54;37.85;34.41;42.36;;
69608;Laerm;57251;52.248;4.812;2023-11-22T00:48:04;38.59;35.51;42.73;;
69608;Laerm;57251;52.248;4.812;2023-11-22T00:48:14;37.87;34.18;41.58;;
69608;Laerm;57251;52.248;4.812;2023-11-22T00:48:24;38.09;34.64;42.16;;
69608;Laerm;57251;52.248;4.812;2023-11-22T00:48:35;39.13;35.22;45.77;;
69608;Laerm;57251;52.248;4.812;2023-11-22T00:48:45;41.33;36.44;47.15;;
69608;Laerm;57251;52.248;4.812;2023-11-22T00:48:55;36.83;33.77;43.27;;
69608;Laerm;57251;52.248;4.812;2023-11-22T00:49:06;35.99;33.51;39.33;;
69608;Laerm;57251;52.248;4.812;2023-11-22T00:49:16;39.08;33.59;46.03;;
69608;Laerm;57251;52.248;4.812;2023-11-22T00:49:27;34.42;32.89;35.96;;
69608;Laerm;57251;52.248;4.812;2023-11-22T00:49:37;35.00;33.22;37.34;;
69608;Laerm;57251;52.248;4.812;2023-11-22T00:49:48;34.26;32.81;35.39;;
69608;Laerm;57251;52.248;4.812;2023-11-22T00:49:58;34.43;33.09;35.91;;
69608;Laerm;57251;52.248;4.812;2023-11-22T00:50:09;34.68;33.23;36.28;;
69608;Laerm;57251;52.248;4.812;2023-11-22T00:50:19;34.19;32.76;35.55;;
69608;Laerm;57251;52.248;4.812;2023-11-22T00:50:30;35.05;32.97;37.96;;
69608;Laerm;57251;52.248;4.812;2023-11-22T00:50:40;33.89;32.15;36.81;;
69608;Laerm;57251;52.248;4.812;2023-11-22T00:50:50;34.20;32.68;36.52;;
69608;Laerm;57251;52.248;4.812;2023-11-22T00:51:01;34.48;32.84;36.55;;
69608;Laerm;57251;52.248;4.812;2023-11-22T00:51:17;36.05;32.93;48.09;;
69608;Laerm;57251;52.248;4.812;2023-11-22T00:51:29;38.89;32.68;52.03;;
69608;Laerm;57251;52.248;4.812;2023-11-22T00:51:41;34.10;32.69;36.94;;
69608;Laerm;57251;52.248;4.812;2023-11-22T00:51:52;33.96;32.69;35.30;;
69608;Laerm;57251;52.248;4.812;2023-11-22T00:52:02;33.79;32.37;35.21;;
69608;Laerm;57251;52.248;4.812;2023-11-22T00:52:13;35.35;33.45;38.69;;
69608;Laerm;57251;52.248;4.812;2023-11-22T00:52:23;37.47;35.07;40.90;;
69608;Laerm;57251;52.248;4.812;2023-11-22T00:52:33;35.87;33.91;38.03;;
69608;Laerm;57251;52.248;4.812;2023-11-22T00:52:43;37.95;33.89;44.29;;
69608;Laerm;57251;52.248;4.812;2023-11-22T00:52:54;39.55;35.89;44.12;;
69608;Laerm;57251;52.248;4.812;2023-11-22T00:53:05;35.31;33.60;36.67;;
69608;Laerm;57251;52.248;4.812;2023-11-22T00:53:15;34.92;33.62;36.59;;
69608;Laerm;57251;52.248;4.812;2023-11-22T00:53:25;36.63;33.29;40.74;;
69608;Laerm;57251;52.248;4.812;2023-11-22T00:53:35;34.08;32.50;37.05;;
69608;Laerm;57251;52.248;4.812;2023-11-22T00:53:48;33.79;32.64;35.46;;
69608;Laerm;57251;52.248;4.812;2023-11-22T00:53:59;33.92;32.21;36.39;;
69608;Laerm;57251;52.248;4.812;2023-11-22T00:54:10;33.44;32.28;34.61;;
69608;Laerm;57251;52.248;4.812;2023-11-22T00:54:20;33.89;32.77;35.54;;
69608;Laerm;57251;52.248;4.812;2023-11-22T00:54:30;34.20;32.95;35.62;;
69608;Laerm;57251;52.248;4.812;2023-11-22T00:54:40;34.44;33.07;36.28;;
69608;Laerm;57251;52.248;4.812;2023-11-22T00:54:50;35.32;33.31;37.18;;
69608;Laerm;57251;52.248;4.812;2023-11-22T00:55:01;34.82;33.07;37.22;;
69608;Laerm;57251;52.248;4.812;2023-11-22T00:55:11;33.96;32.81;35.38;;
69608;Laerm;57251;52.248;4.812;2023-11-22T00:55:21;33.85;32.30;35.19;;
69608;Laerm;57251;52.248;4.812;2023-11-22T00:55:32;33.67;32.32;36.41;;
69608;Laerm;57251;52.248;4.812;2023-11-22T00:55:42;33.73;32.55;36.72;;
69608;Laerm;57251;52.248;4.812;2023-11-22T00:55:52;33.44;32.18;35.25;;
69608;Laerm;57251;52.248;4.812;2023-11-22T00:56:03;33.65;32.13;39.15;;
69608;Laerm;57251;52.248;4.812;2023-11-22T00:56:13;33.36;32.10;35.72;;
69608;Laerm;57251;52.248;4.812;2023-11-22T00:56:24;33.33;32.08;35.09;;
69608;Laerm;57251;52.248;4.812;2023-11-22T00:56:34;33.36;32.27;34.52;;
69608;Laerm;57251;52.248;4.812;2023-11-22T00:56:44;33.37;32.37;34.47;;
69608;Laerm;57251;52.248;4.812;2023-11-22T00:56:55;33.39;32.16;34.50;;
69608;Laerm;57251;52.248;4.812;2023-11-22T00:57:05;33.29;32.13;34.66;;
69608;Laerm;57251;52.248;4.812;2023-11-22T00:57:17;33.22;31.68;34.42;;
69608;Laerm;57251;52.248;4.812;2023-11-22T00:57:27;33.22;32.00;34.38;;
69608;Laerm;57251;52.248;4.812;2023-11-22T00:57:37;33.26;31.93;34.51;;
69608;Laerm;57251;52.248;4.812;2023-11-22T00:57:47;33.42;32.15;34.94;;
69608;Laerm;57251;52.248;4.812;2023-11-22T00:57:58;33.43;32.09;35.05;;
69608;Laerm;57251;52.248;4.812;2023-11-22T00:58:13;33.37;32.16;34.54;;
69608;Laerm;57251;52.248;4.812;2023-11-22T00:58:24;33.67;32.16;35.39;;
69608;Laerm;57251;52.248;4.812;2023-11-22T00:58:34;33.96;32.80;35.41;;
69608;Laerm;57251;52.248;4.812;2023-11-22T00:58:44;33.64;32.13;35.48;;
69608;Laerm;57251;52.248;4.812;2023-11-22T00:58:54;34.27;32.62;37.85;;
69608;Laerm;57251;52.248;4.812;2023-11-22T00:59:05;34.67;32.15;41.02;;
69608;Laerm;57251;52.248;4.812;2023-11-22T00:59:15;33.68;32.55;36.49;;